Terminal Aerodrome Forecast
Issued by NWS

Home | Current Version | Previous Version | Text Only | Print | Product List | Glossary On
Versions: 1 2 3 4 5 6 7 8 9 10 11 12 13 14 15 16 17 18 19 20 21 22 23
000
FTUS44 KBMX 051359 AAA
TAFEET
TAF AMD
KEET 051359Z 0514/0612 28005KT 6SM BR OVC005
     FM051500 VRB03KT P6SM OVC015
     FM052000 21007KT P6SM BKN050
     FM060000 23007KT P6SM SCT050 BKN250
     FM060800 24002KT P6SM BKN015
     FM061100 00000KT 2SM BR OVC003=

USA.gov is the U.S. government's official web portal to all federal, state and local government web resources and services.